Time;durP1;ratioP1;P1;durP2;ratioP2;P2;SDS_P1;SDS_P2;PMS_P1;PMS_P2;Temp;Humidity;BMP_temperature;BMP_pressure;BME280_temperature;BME280_humidity;BME280_pressure;Samples;Min_cycle;Max_cycle;Signal;HPM_P1;HPM_P2
2021/08/07 00:00:37;;;;;;;1.20;1.10;;;12.60;99.90;;;;;;4898305;29;20033;-66
2021/08/07 00:03:03;;;;;;;1.30;1.20;;;12.50;99.90;;;;;;4897667;29;20087;-66
2021/08/07 00:05:29;;;;;;;1.70;1.20;;;12.50;99.90;;;;;;4897941;29;20104;-66
2021/08/07 00:07:54;;;;;;;2.10;1.20;;;12.50;99.90;;;;;;4898053;29;20037;-66
2021/08/07 00:10:20;;;;;;;2.13;1.10;;;12.40;99.90;;;;;;4897701;29;20021;-66
2021/08/07 00:12:46;;;;;;;1.65;1.33;;;12.50;99.90;;;;;;4897578;29;20052;-66
2021/08/07 00:15:12;;;;;;;2.08;1.38;;;12.50;99.90;;;;;;4897676;29;20035;-66
2021/08/07 00:17:38;;;;;;;1.80;1.58;;;12.50;99.90;;;;;;4897817;29;20433;-66
2021/08/07 00:20:05;;;;;;;1.20;1.10;;;12.40;99.90;;;;;;4897821;29;20170;-66
2021/08/07 00:22:31;;;;;;;2.05;1.40;;;12.30;99.90;;;;;;4897622;29;20024;-66
2021/08/07 00:24:57;;;;;;;1.42;1.30;;;12.30;99.90;;;;;;4897819;29;20039;-66
2021/08/07 00:27:22;;;;;;;1.55;1.27;;;12.30;99.90;;;;;;4897360;29;20021;-66
2021/08/07 00:29:48;;;;;;;3.42;1.30;;;12.20;99.90;;;;;;4897563;29;20519;-66
2021/08/07 00:32:14;;;;;;;2.63;1.33;;;12.10;99.90;;;;;;4897147;29;20396;-66
2021/08/07 00:34:39;;;;;;;1.45;1.33;;;12.10;99.90;;;;;;4896575;29;20124;-66
2021/08/07 00:37:06;;;;;;;3.42;1.10;;;12.10;99.90;;;;;;4897145;29;20036;-66
2021/08/07 00:39:32;;;;;;;1.65;1.38;;;12.00;99.90;;;;;;4897349;29;20029;-66
2021/08/07 00:41:58;;;;;;;2.38;1.55;;;11.90;99.90;;;;;;4897499;29;20035;-66
2021/08/07 00:44:23;;;;;;;1.42;1.33;;;11.90;99.90;;;;;;4897269;29;20477;-66
2021/08/07 00:46:49;;;;;;;1.50;1.30;;;11.80;99.90;;;;;;4897307;29;20046;-66
2021/08/07 00:49:15;;;;;;;2.35;1.15;;;11.80;99.90;;;;;;4896771;29;20127;-66
2021/08/07 00:51:41;;;;;;;1.48;1.33;;;11.80;99.90;;;;;;4897536;29;20026;-66
2021/08/07 00:54:06;;;;;;;1.77;1.40;;;11.80;99.90;;;;;;4897046;29;20493;-66
2021/08/07 00:56:32;;;;;;;1.45;1.33;;;11.80;99.90;;;;;;4897393;29;20027;-66
2021/08/07 00:58:58;;;;;;;1.88;1.48;;;11.80;99.90;;;;;;4897260;29;20495;-66
2021/08/07 01:01:28;;;;;;;3.55;1.30;;;11.80;99.90;;;;;;4897157;29;20060;-66
2021/08/07 01:03:55;;;;;;;1.75;1.52;;;11.70;99.90;;;;;;4897148;29;20021;-66
2021/08/07 01:07:06;;;;;;;2.58;1.30;;;11.80;99.90;;;;;;4896805;29;20039;-66
2021/08/07 01:09:47;;;;;;;1.30;1.20;;;11.70;99.90;;;;;;4894870;29;20033;-66
2021/08/07 01:12:18;;;;;;;1.60;1.50;;;11.70;99.90;;;;;;4896759;29;20025;-66
2021/08/07 01:14:46;;;;;;;1.70;1.23;;;11.60;99.90;;;;;;4896894;29;20039;-66
2021/08/07 01:49:12;;;;;;;1.90;1.50;;;11.30;99.90;;;;;;4900113;29;20083;-66
2021/08/07 01:51:54;;;;;;;1.60;1.30;;;11.20;99.90;;;;;;4900609;29;20025;-66
2021/08/07 01:54:29;;;;;;;1.50;1.40;;;11.20;99.90;;;;;;4900067;29;20519;-66
2021/08/07 01:56:56;;;;;;;1.83;1.30;;;11.20;99.90;;;;;;4900371;29;20481;-66
2021/08/07 01:59:23;;;;;;;1.33;1.23;;;11.10;99.90;;;;;;4900251;29;20032;-66
2021/08/07 02:01:50;;;;;;;1.60;1.23;;;11.10;99.90;;;;;;4900466;29;20060;-66
2021/08/07 02:04:18;;;;;;;4.47;1.42;;;11.10;99.90;;;;;;4899942;29;20028;-66
2021/08/07 02:06:44;;;;;;;1.98;1.30;;;11.10;99.90;;;;;;4900129;29;20039;-66
2021/08/07 02:09:11;;;;;;;1.92;1.40;;;11.10;99.90;;;;;;4899743;29;20025;-66
2021/08/07 02:11:41;;;;;;;1.75;1.50;;;11.00;99.90;;;;;;4899989;29;20036;-66
2021/08/07 02:14:08;;;;;;;1.52;1.30;;;11.00;99.90;;;;;;4899940;29;20073;-66
2021/08/07 02:16:36;;;;;;;2.17;1.45;;;11.00;99.90;;;;;;4899923;29;20032;-66
2021/08/07 02:19:02;;;;;;;1.67;1.30;;;11.00;99.90;;;;;;4899849;29;20039;-66
2021/08/07 02:21:28;;;;;;;2.58;1.40;;;11.00;99.90;;;;;;4899788;29;20028;-66
2021/08/07 02:23:54;;;;;;;2.97;1.50;;;11.00;99.90;;;;;;4899598;29;20035;-66
2021/08/07 02:26:23;;;;;;;1.85;1.50;;;11.00;99.90;;;;;;4899591;29;20037;-66
2021/08/07 02:28:50;;;;;;;1.33;1.23;;;11.00;99.90;;;;;;4899497;29;20028;-66
2021/08/07 02:31:16;;;;;;;1.50;1.40;;;11.00;99.90;;;;;;4899488;29;20029;-66
2021/08/07 02:33:42;;;;;;;1.40;1.27;;;11.00;99.90;;;;;;4899589;29;20044;-66
2021/08/07 02:36:11;;;;;;;2.45;1.45;;;10.90;99.90;;;;;;4899448;29;20088;-66
2021/08/07 02:38:37;;;;;;;1.92;1.40;;;10.90;99.90;;;;;;4899503;29;20119;-66
2021/08/07 02:41:04;;;;;;;3.00;1.20;;;10.90;99.90;;;;;;4899304;29;20481;-66
2021/08/07 02:43:31;;;;;;;2.85;1.40;;;10.80;99.90;;;;;;4899581;29;20110;-66
2021/08/07 02:45:58;;;;;;;3.63;1.40;;;10.90;99.90;;;;;;4899401;29;20037;-66
2021/08/07 02:48:26;;;;;;;1.55;1.30;;;10.90;99.90;;;;;;4899139;29;20509;-66
2021/08/07 02:50:52;;;;;;;1.85;1.40;;;10.90;99.90;;;;;;4899264;29;20040;-66
2021/08/07 02:53:19;;;;;;;1.35;1.25;;;10.90;99.90;;;;;;4899205;29;20048;-66
2021/08/07 02:55:45;;;;;;;1.85;1.10;;;10.80;99.90;;;;;;4899154;29;20029;-66
2021/08/07 02:58:12;;;;;;;1.85;1.50;;;10.90;99.90;;;;;;4898201;29;20025;-66
2021/08/07 03:00:38;;;;;;;1.45;1.30;;;10.90;99.90;;;;;;4899213;29;20032;-66
2021/08/07 03:03:04;;;;;;;2.08;1.30;;;10.80;99.90;;;;;;4898745;29;20033;-66
2021/08/07 03:05:30;;;;;;;1.60;1.50;;;10.80;99.90;;;;;;4899067;29;20029;-66
2021/08/07 03:07:56;;;;;;;1.80;1.58;;;10.80;99.90;;;;;;4899263;29;20035;-66
2021/08/07 03:10:22;;;;;;;1.95;1.40;;;10.80;99.90;;;;;;4898964;29;20017;-66
2021/08/07 03:12:52;;;;;;;1.77;1.48;;;10.80;99.90;;;;;;4899072;29;20044;-66
2021/08/07 03:15:20;;;;;;;1.45;1.35;;;10.80;99.90;;;;;;4899159;29;20083;-66
2021/08/07 03:17:45;;;;;;;1.50;1.38;;;10.80;99.90;;;;;;4898989;29;20032;-66
2021/08/07 03:20:12;;;;;;;1.20;1.10;;;10.90;99.90;;;;;;4898990;29;20510;-66
2021/08/07 03:22:37;;;;;;;2.10;1.80;;;10.90;99.90;;;;;;4898700;29;20043;-66
2021/08/07 03:25:04;;;;;;;2.15;1.35;;;10.80;99.90;;;;;;4898750;29;20107;-66
2021/08/07 03:27:30;;;;;;;1.63;1.40;;;10.80;99.90;;;;;;4898687;29;20415;-66
2021/08/07 03:29:56;;;;;;;1.50;1.27;;;10.80;99.90;;;;;;4898543;29;20088;-66
2021/08/07 03:32:21;;;;;;;1.67;1.58;;;10.80;99.90;;;;;;4898459;29;20128;-66
2021/08/07 03:34:47;;;;;;;2.85;1.38;;;10.80;99.90;;;;;;4898452;29;20119;-66
2021/08/07 03:37:13;;;;;;;1.65;1.38;;;10.80;99.90;;;;;;4898355;29;20028;-66
2021/08/07 03:39:40;;;;;;;1.75;1.33;;;10.90;99.90;;;;;;4898909;29;20120;-66
2021/08/07 03:42:06;;;;;;;1.33;1.23;;;10.90;99.90;;;;;;4898249;29;20028;-66
2021/08/07 03:44:32;;;;;;;4.40;1.25;;;10.90;99.90;;;;;;4898543;29;20032;-66
2021/08/07 03:46:57;;;;;;;2.42;1.52;;;11.00;99.90;;;;;;4898591;29;20536;-66
2021/08/07 03:49:23;;;;;;;2.65;1.35;;;11.00;99.90;;;;;;4897872;29;20482;-66
2021/08/07 03:51:49;;;;;;;1.63;1.40;;;11.00;99.90;;;;;;4898183;29;20040;-66
2021/08/07 03:54:15;;;;;;;4.07;1.60;;;11.10;99.90;;;;;;4897766;29;20047;-66
2021/08/07 03:56:41;;;;;;;1.80;1.40;;;11.30;99.90;;;;;;4898111;29;20107;-66
2021/08/07 03:59:06;;;;;;;1.63;1.40;;;11.70;99.90;;;;;;4897807;29;20033;-66
2021/08/07 04:01:32;;;;;;;1.67;1.42;;;12.10;99.90;;;;;;4898012;29;20021;-66
2021/08/07 04:03:58;;;;;;;1.20;1.10;;;12.50;99.90;;;;;;4897811;29;20080;-66
2021/08/07 04:06:24;;;;;;;1.33;1.23;;;12.70;99.90;;;;;;4898035;29;20060;-66
2021/08/07 04:08:49;;;;;;;1.80;1.20;;;12.70;99.90;;;;;;4897662;29;20032;-66
2021/08/07 04:11:15;;;;;;;3.00;1.42;;;12.80;99.90;;;;;;4897670;29;20137;-66
2021/08/07 04:13:41;;;;;;;1.98;1.30;;;12.80;99.90;;;;;;4897873;29;20032;-66
2021/08/07 04:16:08;;;;;;;1.48;1.15;;;13.10;99.90;;;;;;4897944;29;20524;-66
2021/08/07 04:18:34;;;;;;;2.08;1.10;;;13.40;99.90;;;;;;4897858;29;20095;-66
2021/08/07 04:20:59;;;;;;;1.15;1.00;;;13.70;99.90;;;;;;4898048;29;20033;-66
2021/08/07 04:23:25;;;;;;;1.02;0.93;;;14.00;99.90;;;;;;4897372;29;20036;-66
2021/08/07 04:25:51;;;;;;;1.10;1.00;;;14.50;99.90;;;;;;4897621;29;20035;-66
2021/08/07 04:28:17;;;;;;;2.45;1.30;;;14.90;99.90;;;;;;4897274;29;20115;-66
2021/08/07 04:30:44;;;;;;;1.20;1.10;;;15.20;99.90;;;;;;4897556;29;20065;-66
2021/08/07 04:33:09;;;;;;;2.45;1.00;;;15.50;99.90;;;;;;4897174;29;20071;-66
2021/08/07 04:35:36;;;;;;;1.35;1.20;;;15.90;99.90;;;;;;4897420;29;20025;-66
2021/08/07 04:38:02;;;;;;;2.85;1.10;;;16.20;99.90;;;;;;4897246;29;20532;-66
2021/08/07 04:40:29;;;;;;;1.75;1.30;;;16.50;99.90;;;;;;4897303;29;20044;-66
2021/08/07 04:42:54;;;;;;;3.47;1.10;;;16.80;99.90;;;;;;4897458;29;20458;-66
2021/08/07 04:45:21;;;;;;;1.70;1.02;;;17.20;99.90;;;;;;4897520;29;20024;-66
2021/08/07 04:47:54;;;;;;;1.10;1.00;;;17.40;99.70;;;;;;4897537;29;20107;-66
2021/08/07 04:50:21;;;;;;;3.35;1.23;;;17.80;99.00;;;;;;4897033;29;20071;-66
2021/08/07 04:52:47;;;;;;;4.35;0.90;;;18.10;98.50;;;;;;4897008;29;20036;-66
2021/08/07 04:55:13;;;;;;;1.67;1.00;;;18.50;97.70;;;;;;4897251;29;20128;-66
2021/08/07 04:57:38;;;;;;;1.50;1.00;;;18.80;96.70;;;;;;4897353;29;20021;-66
2021/08/07 05:00:05;;;;;;;1.00;0.90;;;19.10;95.80;;;;;;4896951;29;20048;-66
2021/08/07 05:02:31;;;;;;;0.82;0.82;;;19.30;95.50;;;;;;4897132;29;20088;-66
2021/08/07 05:04:56;;;;;;;3.15;0.82;;;19.60;94.30;;;;;;4897003;29;20025;-66
2021/08/07 05:07:22;;;;;;;4.72;0.80;;;20.00;93.50;;;;;;4896858;29;20044;-66
2021/08/07 05:09:48;;;;;;;2.75;0.80;;;20.40;92.30;;;;;;4897190;29;20040;-67
2021/08/07 05:12:14;;;;;;;2.55;1.02;;;20.80;91.00;;;;;;4897053;29;20063;-66
2021/08/07 05:14:40;;;;;;;1.98;0.80;;;20.90;89.90;;;;;;4896875;29;20045;-66
2021/08/07 05:17:05;;;;;;;1.20;1.10;;;21.10;87.90;;;;;;4897182;29;20115;-67
2021/08/07 05:19:31;;;;;;;5.72;0.88;;;21.20;87.60;;;;;;4896564;29;20341;-67
2021/08/07 05:21:57;;;;;;;3.03;0.90;;;21.40;86.30;;;;;;4901667;29;20037;-67
2021/08/07 05:24:22;;;;;;;1.48;0.77;;;21.50;85.30;;;;;;4903149;29;20421;-67
2021/08/07 05:26:48;;;;;;;2.33;0.90;;;21.60;84.40;;;;;;4901848;29;20032;-67
2021/08/07 05:29:14;;;;;;;1.65;0.82;;;21.70;84.90;;;;;;4902859;29;20028;-67
2021/08/07 05:31:40;;;;;;;0.85;0.80;;;22.10;83.50;;;;;;4903122;29;20028;-67
2021/08/07 05:34:05;;;;;;;2.45;0.85;;;22.30;80.90;;;;;;4902881;29;20519;-67
2021/08/07 05:36:31;;;;;;;0.82;0.70;;;22.40;80.50;;;;;;4903209;29;20024;-67
2021/08/07 05:38:57;;;;;;;2.08;0.80;;;22.50;79.10;;;;;;4902949;29;20040;-67
2021/08/07 05:41:22;;;;;;;1.23;0.90;;;22.70;78.90;;;;;;4903411;29;20025;-67
2021/08/07 05:43:48;;;;;;;1.40;1.08;;;22.80;79.40;;;;;;4902812;29;20033;-67
2021/08/07 05:46:14;;;;;;;1.63;1.10;;;22.90;78.60;;;;;;4903121;29;20058;-67
2021/08/07 05:48:40;;;;;;;2.42;1.08;;;23.00;79.00;;;;;;4902747;29;20033;-67
2021/08/07 05:51:06;;;;;;;3.33;0.80;;;23.10;77.40;;;;;;4903273;29;20395;-67
2021/08/07 05:53:32;;;;;;;1.42;1.05;;;23.20;77.10;;;;;;4902541;29;20044;-67
2021/08/07 05:55:57;;;;;;;1.38;1.05;;;23.40;77.70;;;;;;4902904;29;20029;-67
2021/08/07 05:58:23;;;;;;;1.30;1.00;;;23.60;77.90;;;;;;4902971;29;20532;-67
2021/08/07 06:00:49;;;;;;;3.15;1.00;;;23.70;77.50;;;;;;4902901;29;20025;-67
2021/08/07 06:03:14;;;;;;;1.67;0.77;;;23.80;77.40;;;;;;4902843;29;20063;-67
2021/08/07 06:05:40;;;;;;;1.10;0.90;;;23.90;77.00;;;;;;4903163;29;20044;-67
2021/08/07 06:08:06;;;;;;;1.67;0.98;;;23.90;76.50;;;;;;4903370;29;20035;-67
2021/08/07 06:10:32;;;;;;;1.75;1.00;;;24.00;77.10;;;;;;4902710;29;20473;-67
2021/08/07 06:12:57;;;;;;;2.05;1.10;;;24.20;76.20;;;;;;4902746;29;20041;-67
2021/08/07 06:15:23;;;;;;;3.60;1.00;;;24.30;75.60;;;;;;4902658;29;20476;-67
2021/08/07 06:17:49;;;;;;;1.00;0.90;;;24.40;75.10;;;;;;4902946;29;20092;-67
2021/08/07 06:20:15;;;;;;;1.20;0.98;;;24.50;74.30;;;;;;4902568;29;20063;-67
2021/08/07 06:22:41;;;;;;;1.13;0.95;;;24.60;74.30;;;;;;4902677;29;20032;-67
2021/08/07 06:25:08;;;;;;;1.40;1.00;;;24.60;73.60;;;;;;4902657;29;20116;-67
2021/08/07 06:27:34;;;;;;;2.45;1.00;;;24.70;72.90;;;;;;4902517;29;20028;-67
2021/08/07 06:30:00;;;;;;;1.10;0.90;;;24.80;72.60;;;;;;4902492;29;20028;-67
2021/08/07 06:32:26;;;;;;;1.00;0.90;;;24.70;72.70;;;;;;4901660;29;20025;-67
2021/08/07 06:34:52;;;;;;;1.40;0.70;;;24.90;72.60;;;;;;4899589;29;20036;-67
2021/08/07 06:37:18;;;;;;;2.03;0.90;;;25.00;71.90;;;;;;4899530;29;20058;-67
2021/08/07 06:39:44;;;;;;;3.13;0.90;;;25.00;71.80;;;;;;4899507;29;20083;-67
2021/08/07 06:42:10;;;;;;;0.80;0.80;;;25.00;71.70;;;;;;4899545;29;20072;-67
2021/08/07 06:44:36;;;;;;;2.05;0.90;;;24.90;71.20;;;;;;4899595;29;20036;-67
2021/08/07 06:47:02;;;;;;;1.67;1.00;;;24.50;71.60;;;;;;4899510;29;20540;-67
2021/08/07 06:49:27;;;;;;;1.02;0.93;;;24.40;72.00;;;;;;4899140;29;20060;-67
2021/08/07 06:51:53;;;;;;;2.03;0.80;;;24.30;72.50;;;;;;4899612;29;20602;-67
2021/08/07 06:54:19;;;;;;;1.02;0.93;;;23.90;72.90;;;;;;4899222;29;20033;-67
2021/08/07 06:56:48;;;;;;;1.90;0.88;;;23.80;73.80;;;;;;4899496;29;20028;-67
2021/08/07 06:59:14;;;;;;;2.90;0.77;;;23.90;74.20;;;;;;4899136;29;20038;-67
2021/08/07 07:01:40;;;;;;;0.95;0.82;;;24.10;74.60;;;;;;4899668;29;20108;-67
2021/08/07 07:04:06;;;;;;;1.30;0.85;;;24.20;74.40;;;;;;4898954;29;20487;-67
2021/08/07 07:06:31;;;;;;;1.40;1.13;;;24.10;74.20;;;;;;4899043;29;20504;-67
2021/08/07 07:08:57;;;;;;;1.38;1.00;;;24.20;74.60;;;;;;4899227;29;20040;-67
2021/08/07 07:11:23;;;;;;;1.20;0.80;;;24.10;74.10;;;;;;4898800;29;20031;-67
2021/08/07 07:13:48;;;;;;;3.55;0.95;;;24.00;74.60;;;;;;4899373;29;20047;-68
2021/08/07 07:16:14;;;;;;;1.52;1.00;;;23.90;74.80;;;;;;4898897;29;20511;-67
2021/08/07 07:18:40;;;;;;;0.98;0.88;;;23.90;75.10;;;;;;4898789;29;20033;-67
2021/08/07 07:21:06;;;;;;;1.35;1.00;;;23.60;75.40;;;;;;4898780;29;20552;-67
2021/08/07 07:23:32;;;;;;;2.83;0.90;;;23.60;76.40;;;;;;4898775;29;20063;-67
2021/08/07 07:25:57;;;;;;;1.48;0.90;;;23.40;76.90;;;;;;4899016;29;20052;-67
2021/08/07 07:28:23;;;;;;;1.10;1.00;;;23.40;77.20;;;;;;4898502;29;20594;-67
2021/08/07 07:30:49;;;;;;;1.38;0.95;;;23.40;77.00;;;;;;4898861;29;20076;-67
2021/08/07 07:33:15;;;;;;;1.63;0.95;;;23.50;77.00;;;;;;4898746;29;20392;-67
2021/08/07 07:35:41;;;;;;;0.85;0.80;;;23.30;77.00;;;;;;4898632;29;20091;-67
2021/08/07 07:38:07;;;;;;;0.95;0.90;;;23.10;77.80;;;;;;4898733;29;20132;-67
2021/08/07 07:40:34;;;;;;;1.40;1.10;;;23.20;77.80;;;;;;4898194;29;20528;-67
2021/08/07 07:43:00;;;;;;;1.75;1.08;;;23.20;77.40;;;;;;4898312;29;20037;-67
2021/08/07 07:45:26;;;;;;;1.65;0.95;;;23.10;78.70;;;;;;4897576;29;20040;-67
2021/08/07 07:47:52;;;;;;;1.27;1.10;;;23.00;78.10;;;;;;4898245;29;20024;-67
2021/08/07 07:50:17;;;;;;;5.22;1.02;;;22.90;79.20;;;;;;4897871;29;20085;-67
2021/08/07 07:52:44;;;;;;;2.92;1.00;;;22.90;79.00;;;;;;4898054;29;20035;-67
2021/08/07 07:55:10;;;;;;;1.58;1.10;;;22.80;79.20;;;;;;4898006;29;20048;-67
2021/08/07 07:57:36;;;;;;;2.90;1.08;;;22.80;78.60;;;;;;4898260;29;20047;-67
2021/08/07 08:00:04;;;;;;;2.10;1.10;;;22.80;79.00;;;;;;4898165;29;20473;-66
2021/08/07 08:02:30;;;;;;;1.33;0.77;;;22.90;78.40;;;;;;4896601;29;20029;-66
2021/08/07 08:04:55;;;;;;;0.98;0.85;;;23.00;78.10;;;;;;4898200;29;20032;-66
2021/08/07 08:07:21;;;;;;;4.93;1.30;;;23.00;77.50;;;;;;4897809;29;20048;-66
2021/08/07 08:09:47;;;;;;;2.10;1.00;;;23.00;77.90;;;;;;4898083;29;20028;-66
2021/08/07 08:12:13;;;;;;;2.10;1.20;;;23.00;77.20;;;;;;4897750;29;20104;-66
2021/08/07 08:14:38;;;;;;;0.85;0.80;;;22.90;76.70;;;;;;4897597;29;20044;-66
2021/08/07 08:17:04;;;;;;;1.83;1.23;;;22.90;78.30;;;;;;4897821;29;20029;-66
2021/08/07 08:19:30;;;;;;;2.85;1.00;;;22.90;79.70;;;;;;4897413;29;20043;-66
2021/08/07 08:21:56;;;;;;;2.10;1.40;;;22.80;79.30;;;;;;4897662;29;20037;-66
2021/08/07 08:24:21;;;;;;;2.63;1.20;;;22.70;80.50;;;;;;4897419;29;20115;-66
2021/08/07 08:26:47;;;;;;;1.60;1.30;;;22.50;80.60;;;;;;4897834;29;20032;-66
2021/08/07 08:29:13;;;;;;;1.25;1.10;;;22.20;81.80;;;;;;4897777;29;20048;-66
2021/08/07 08:31:39;;;;;;;3.42;1.08;;;22.30;83.00;;;;;;4897619;29;20540;-66
2021/08/07 08:34:05;;;;;;;2.45;1.38;;;22.30;82.20;;;;;;4897257;29;20481;-66
2021/08/07 08:36:31;;;;;;;2.40;1.40;;;22.40;82.10;;;;;;4897319;29;20119;-66
2021/08/07 08:38:56;;;;;;;3.58;1.00;;;22.30;82.20;;;;;;4897549;29;20390;-66
2021/08/07 08:41:23;;;;;;;2.65;1.13;;;22.30;82.70;;;;;;4897205;29;20055;-66
2021/08/07 08:43:51;;;;;;;1.98;0.93;;;22.20;80.80;;;;;;4897421;29;20075;-66
2021/08/07 08:46:19;;;;;;;1.65;1.00;;;22.10;80.90;;;;;;4897353;29;20021;-66
2021/08/07 08:48:45;;;;;;;1.75;1.23;;;22.00;81.80;;;;;;4896985;29;20033;-66
2021/08/07 08:51:14;;;;;;;4.03;1.20;;;21.90;82.20;;;;;;4897279;29;20077;-66
2021/08/07 08:53:41;;;;;;;2.45;1.08;;;22.00;82.60;;;;;;4897077;29;20433;-66
2021/08/07 08:56:08;;;;;;;1.45;1.00;;;21.90;83.40;;;;;;4895245;29;20384;-66
2021/08/07 08:58:35;;;;;;;2.35;0.90;;;21.90;83.30;;;;;;4896998;29;20043;-66
2021/08/07 09:01:09;;;;;;;2.63;1.05;;;22.00;83.20;;;;;;4897102;29;20029;-66
2021/08/07 09:03:34;;;;;;;5.00;0.80;;;22.00;82.60;;;;;;4897097;29;20065;-66
2021/08/07 09:06:00;;;;;;;3.50;1.10;;;22.00;82.40;;;;;;4896962;29;20024;-66
2021/08/07 09:08:26;;;;;;;1.10;1.00;;;22.10;82.20;;;;;;4896823;29;20036;-66
2021/08/07 09:11:11;;;;;;;4.68;1.10;;;22.10;83.30;;;;;;4896932;29;20417;-66
2021/08/07 09:13:37;;;;;;;1.08;0.98;;;22.20;84.00;;;;;;4896883;29;20458;-66
2021/08/07 09:16:08;;;;;;;1.35;0.70;;;22.30;83.10;;;;;;4896894;29;20059;-66
2021/08/07 09:18:33;;;;;;;0.93;0.85;;;22.30;82.80;;;;;;4896602;29;20160;-66
2021/08/07 09:21:16;;;;;;;4.65;1.30;;;22.30;83.40;;;;;;4896814;29;20104;-66
2021/08/07 09:23:42;;;;;;;4.78;1.02;;;22.40;83.30;;;;;;4896551;29;20157;-66
2021/08/07 09:26:12;;;;;;;1.08;0.98;;;22.30;81.70;;;;;;4897024;29;20176;-66
2021/08/07 09:28:50;;;;;;;1.55;1.00;;;22.20;82.00;;;;;;4896761;29;20120;-66
2021/08/07 09:31:15;;;;;;;2.38;1.08;;;22.20;82.80;;;;;;4896812;29;20033;-66
2021/08/07 09:33:41;;;;;;;0.80;0.80;;;22.10;83.80;;;;;;4896418;29;20040;-66
2021/08/07 09:36:07;;;;;;;5.80;1.13;;;22.10;83.50;;;;;;4897198;29;20028;-66
2021/08/07 09:38:41;;;;;;;4.43;1.13;;;22.10;83.40;;;;;;4897143;29;20377;-66
2021/08/07 09:41:07;;;;;;;7.88;1.05;;;22.00;83.50;;;;;;4896716;29;20469;-66
2021/08/07 09:43:44;;;;;;;1.85;0.90;;;21.90;78.80;;;;;;4896868;29;20047;-66
2021/08/07 09:46:20;;;;;;;2.22;1.08;;;21.90;79.90;;;;;;4896601;29;20029;-66
2021/08/07 09:48:49;;;;;;;2.35;0.98;;;22.00;80.40;;;;;;4896300;29;20053;-67
2021/08/07 09:51:16;;;;;;;6.70;1.10;;;22.10;80.10;;;;;;4896606;29;20127;-66
2021/08/07 09:53:42;;;;;;;5.07;1.15;;;22.10;80.80;;;;;;4896661;29;20045;-66
2021/08/07 09:56:09;;;;;;;3.35;0.90;;;22.00;80.30;;;;;;4896441;29;20389;-66
2021/08/07 09:58:35;;;;;;;1.63;1.00;;;21.90;81.70;;;;;;4896355;29;20115;-66
2021/08/07 10:01:01;;;;;;;3.63;1.10;;;21.90;80.80;;;;;;4896424;29;20064;-66
2021/08/07 10:03:31;;;;;;;1.88;0.93;;;22.00;83.50;;;;;;4896627;29;20029;-66
2021/08/07 10:06:18;;;;;;;3.90;1.00;;;22.00;82.70;;;;;;4896660;29;20088;-66
2021/08/07 10:08:51;;;;;;;1.48;0.90;;;22.00;83.20;;;;;;4899558;29;20036;-67
2021/08/07 10:11:19;;;;;;;5.57;1.02;;;21.90;82.20;;;;;;4900321;29;20076;-68
2021/08/07 10:13:46;;;;;;;6.13;1.10;;;21.90;81.30;;;;;;4900051;29;20501;-66
2021/08/07 10:16:14;;;;;;;4.43;0.85;;;21.90;81.10;;;;;;4899889;29;20362;-66
2021/08/07 10:18:44;;;;;;;8.13;0.80;;;21.90;79.60;;;;;;4899983;29;20050;-66
2021/08/07 10:21:11;;;;;;;1.80;0.90;;;21.80;79.40;;;;;;4899899;29;20020;-66
2021/08/07 10:23:37;;;;;;;1.63;0.80;;;21.70;80.00;;;;;;4900017;29;20028;-66
2021/08/07 10:26:03;;;;;;;7.80;1.10;;;21.60;80.00;;;;;;4899876;29;20064;-66
2021/08/07 10:28:30;;;;;;;16.00;1.50;;;21.70;80.10;;;;;;4899797;29;20029;-66
2021/08/07 10:30:59;;;;;;;7.80;1.10;;;21.80;78.90;;;;;;4899533;29;20409;-66
2021/08/07 10:33:26;;;;;;;1.23;0.80;;;21.80;78.50;;;;;;4899850;29;20084;-66
2021/08/07 10:35:54;;;;;;;1.58;0.82;;;21.80;78.60;;;;;;4899794;29;20453;-66
2021/08/07 10:38:20;;;;;;;3.45;1.52;;;21.80;78.50;;;;;;4899930;29;20033;-66
2021/08/07 10:40:46;;;;;;;1.63;0.77;;;21.70;78.80;;;;;;4899617;29;20042;-66
2021/08/07 10:43:13;;;;;;;1.13;0.80;;;21.70;78.10;;;;;;4899736;29;20029;-66
2021/08/07 10:45:43;;;;;;;2.00;1.02;;;21.60;78.00;;;;;;4899229;29;20389;-66
2021/08/07 10:48:38;;;;;;;3.28;1.00;;;21.60;78.80;;;;;;4899670;29;20127;-66
2021/08/07 10:51:18;;;;;;;1.27;0.90;;;21.60;80.00;;;;;;4899559;29;20127;-66
2021/08/07 10:53:46;;;;;;;1.92;0.90;;;21.60;79.10;;;;;;4899410;29;20028;-66
2021/08/07 10:56:29;;;;;;;1.00;0.90;;;21.60;78.60;;;;;;4899676;29;20048;-66
2021/08/07 10:59:24;;;;;;;1.17;0.95;;;21.60;76.30;;;;;;4899496;29;20035;-66
2021/08/07 11:01:58;;;;;;;20.02;1.50;;;21.60;77.00;;;;;;4895481;29;20040;-66
2021/08/07 11:04:45;;;;;;;6.90;0.90;;;21.60;77.90;;;;;;4899069;29;20600;-66
2021/08/07 11:07:18;;;;;;;0.90;0.50;;;21.50;77.30;;;;;;4899059;29;20032;-66
2021/08/07 11:09:59;;;;;;;1.63;0.80;;;21.60;76.70;;;;;;4899207;29;20085;-66
2021/08/07 11:12:25;;;;;;;1.10;0.68;;;21.50;76.20;;;;;;4898867;29;20025;-66
2021/08/07 11:14:55;;;;;;;2.35;0.70;;;21.50;76.20;;;;;;4899005;29;20035;-66
2021/08/07 11:17:20;;;;;;;5.07;0.82;;;21.40;76.80;;;;;;4898660;29;20466;-66
2021/08/07 11:20:07;;;;;;;1.23;0.70;;;21.40;75.10;;;;;;4897804;29;20092;-66
2021/08/07 11:22:35;;;;;;;1.75;0.80;;;21.30;76.00;;;;;;4898495;29;20111;-66
2021/08/07 11:25:02;;;;;;;1.90;0.80;;;21.30;76.40;;;;;;4898596;29;20028;-66
2021/08/07 11:27:52;;;;;;;1.55;0.73;;;21.30;76.10;;;;;;4898552;29;20040;-66
2021/08/07 11:30:30;;;;;;;;;;;21.30;74.30;;;;;;4899075;29;20083;-66
2021/08/07 11:33:01;;;;;;;1.27;1.10;;;21.20;74.70;;;;;;4898599;29;20404;-66
2021/08/07 11:35:41;;;;;;;2.00;0.73;;;21.20;75.30;;;;;;4898558;29;20029;-66
2021/08/07 11:38:49;;;;;;;;;;;21.20;75.00;;;;;;4899327;29;20132;-66
2021/08/07 11:41:06;;;;;;;1.05;0.90;;;21.20;74.10;;;;;;4895390;29;19934;-66
2021/08/07 11:43:40;;;;;;;5.13;1.17;;;21.20;72.50;;;;;;4898142;29;20029;-66
2021/08/07 11:46:08;;;;;;;3.70;0.73;;;21.20;71.40;;;;;;4898522;29;20441;-66
2021/08/07 11:48:38;;;;;;;5.70;0.93;;;21.20;72.30;;;;;;4897990;29;20024;-66
2021/08/07 11:51:09;;;;;;;6.50;1.08;;;21.20;71.10;;;;;;4898485;29;20048;-66
2021/08/07 11:53:39;;;;;;;0.80;0.60;;;21.20;71.50;;;;;;4898218;29;20044;-66
2021/08/07 11:56:09;;;;;;;2.17;0.80;;;21.10;70.80;;;;;;4897855;29;20027;-66
2021/08/07 11:58:51;;;;;;;1.75;0.85;;;21.00;71.60;;;;;;4898202;29;20032;-66
2021/08/07 12:01:18;;;;;;;1.08;0.85;;;21.00;71.50;;;;;;4898260;29;20028;-66
2021/08/07 12:03:53;;;;;;;2.58;1.00;;;20.90;72.90;;;;;;4897773;29;20032;-66
2021/08/07 12:06:26;;;;;;;2.55;1.00;;;20.90;73.50;;;;;;4897899;29;20036;-66
2021/08/07 12:08:51;;;;;;;2.70;1.20;;;20.90;73.00;;;;;;4897834;29;20071;-66
2021/08/07 12:11:18;;;;;;;5.55;1.35;;;20.90;73.90;;;;;;4898068;29;20064;-66
2021/08/07 12:13:57;;;;;;;2.67;1.17;;;20.80;73.60;;;;;;4897641;29;20043;-66
2021/08/07 12:16:28;;;;;;;1.67;1.10;;;20.70;72.10;;;;;;4898036;29;20036;-66
2021/08/07 12:19:05;;;;;;;5.00;1.40;;;20.60;73.50;;;;;;4897385;29;20036;-67
2021/08/07 12:21:36;;;;;;;6.65;1.23;;;20.60;74.60;;;;;;4897894;29;20051;-66
2021/08/07 12:24:09;;;;;;;5.53;1.00;;;20.60;75.40;;;;;;4897907;29;20042;-66
2021/08/07 12:26:44;;;;;;;1.52;0.88;;;20.60;76.80;;;;;;4897767;29;20075;-66
2021/08/07 12:29:12;;;;;;;1.48;1.10;;;20.60;76.70;;;;;;4897603;29;20637;-66
2021/08/07 12:31:54;;;;;;;1.27;1.00;;;20.70;77.30;;;;;;4897172;29;20388;-67
2021/08/07 12:34:27;;;;;;;2.28;0.80;;;20.70;77.50;;;;;;4897291;29;20033;-67
2021/08/07 12:37:06;;;;;;;1.70;0.90;;;20.70;78.00;;;;;;4897281;29;20492;-67
2021/08/07 12:39:53;;;;;;;8.23;1.10;;;20.60;78.30;;;;;;4896145;29;20025;-66
2021/08/07 12:42:24;;;;;;;1.67;1.00;;;20.60;79.10;;;;;;4897425;29;20043;-66
2021/08/07 12:45:01;;;;;;;1.75;1.08;;;20.60;78.60;;;;;;4897109;29;20441;-66
2021/08/07 12:47:31;;;;;;;3.25;0.95;;;20.60;79.50;;;;;;4897399;29;20120;-67
2021/08/07 12:50:19;;;;;;;9.68;1.38;;;20.60;80.00;;;;;;4896893;29;20100;-67
2021/08/07 12:52:50;;;;;;;0.82;0.80;;;20.70;79.90;;;;;;4897246;29;20032;-66
2021/08/07 12:55:20;;;;;;;22.08;1.52;;;20.60;79.50;;;;;;4897119;29;20111;-67
2021/08/07 12:57:46;;;;;;;3.28;1.30;;;20.50;80.50;;;;;;4897627;29;20163;-67
2021/08/07 13:00:13;;;;;;;6.72;1.23;;;20.50;81.10;;;;;;4897201;29;20047;-67
2021/08/07 13:02:39;;;;;;;1.55;0.90;;;20.40;81.30;;;;;;4897456;29;20025;-66
2021/08/07 13:05:06;;;;;;;4.80;1.27;;;20.40;81.70;;;;;;4897178;29;20029;-67
2021/08/07 13:07:32;;;;;;;5.03;1.17;;;20.30;82.00;;;;;;4897336;29;20096;-66
2021/08/07 13:10:24;;;;;;;1.58;1.00;;;20.30;82.10;;;;;;4896631;29;20374;-67
2021/08/07 13:12:52;;;;;;;1.60;1.20;;;20.30;82.40;;;;;;4897078;29;20028;-67
2021/08/07 13:15:18;;;;;;;3.13;1.02;;;20.30;82.40;;;;;;4897069;29;20116;-66
2021/08/07 13:17:49;;;;;;;2.65;1.13;;;20.30;82.90;;;;;;4896809;29;20028;-67
2021/08/07 13:20:34;;;;;;;1.73;1.15;;;20.30;82.20;;;;;;4897065;29;20029;-66
2021/08/07 13:23:01;;;;;;;4.05;1.08;;;20.30;83.00;;;;;;4897141;29;20032;-67
2021/08/07 13:25:27;;;;;;;4.38;1.20;;;20.40;82.10;;;;;;4896713;29;20020;-67